Time;durP1;ratioP1;P1;durP2;ratioP2;P2;SDS_P1;SDS_P2;PMS_P1;PMS_P2;Temp;Humidity;BMP_temperature;BMP_pressure;BME280_temperature;BME280_humidity;BME280_pressure;Samples;Min_cycle;Max_cycle;Signal;HPM_P1;HPM_P2
2023/12/22 00:00:17;;;;;;;3.70;1.00;;;;;;;4.53;83.25;149808.84;13045929;22;20011;-80
2023/12/22 00:05:19;;;;;;;4.45;1.00;;;;;;;4.65;81.86;149837.09;13076306;22;20456;-79
2023/12/22 00:10:20;;;;;;;3.78;0.85;;;;;;;4.54;82.37;149811.41;13074163;22;20049;-79
2023/12/22 00:15:22;;;;;;;9.32;1.30;;;;;;;4.52;82.61;149806.28;13076406;22;20021;-80
2023/12/22 00:20:24;;;;;;;6.72;1.30;;;;;;;4.47;81.71;149793.44;13074872;22;20022;-80
2023/12/22 00:25:26;;;;;;;4.35;1.50;;;;;;;4.53;80.75;149808.84;13081912;22;20019;-80
2023/12/22 00:30:28;;;;;;;4.18;0.93;;;;;;;4.46;80.87;149790.84;13043506;22;20019;-81
2023/12/22 00:35:29;;;;;;;4.32;1.15;;;;;;;4.38;82.19;149770.28;13076084;22;20031;-80
2023/12/22 00:40:31;;;;;;;5.72;1.05;;;;;;;4.42;82.21;149780.56;13074864;22;20031;-80
2023/12/22 00:45:33;;;;;;;6.75;1.15;;;;;;;4.39;82.89;149772.88;13074015;22;20041;-80
2023/12/22 00:50:34;;;;;;;3.35;0.82;;;;;;;4.41;82.53;149778.00;13074574;22;20033;-80
2023/12/22 00:55:36;;;;;;;3.88;0.85;;;;;;;4.48;80.87;149794.72;13073176;22;20023;-80
2023/12/22 01:00:38;;;;;;;5.97;1.33;;;;;;;4.72;77.60;149855.09;13073596;22;20408;-80
2023/12/22 01:05:40;;;;;;;1.95;1.00;;;;;;;4.72;77.94;149856.38;13046263;22;20049;-80
2023/12/22 01:10:41;;;;;;;8.57;2.00;;;;;;;4.71;79.27;149852.56;13073792;22;20022;-80
2023/12/22 01:15:43;;;;;;;8.45;1.73;;;;;;;4.58;80.26;149820.41;13071576;22;20019;-80
2023/12/22 01:20:45;;;;;;;4.28;1.25;;;;;;;4.62;79.78;149829.41;13068740;22;20015;-81
2023/12/22 01:25:47;;;;;;;4.03;1.48;;;;;;;4.62;79.76;149829.41;13027577;22;20049;-80
2023/12/22 01:30:48;;;;;;;5.32;1.17;;;;;;;4.60;80.25;149824.25;13073099;22;20039;-80
2023/12/22 01:35:50;;;;;;;5.05;1.40;;;;;;;4.65;78.75;149837.09;13088303;22;20004;-78
2023/12/22 01:40:52;;;;;;;7.05;1.88;;;;;;;4.64;77.93;149834.53;13097908;22;20017;-80
2023/12/22 01:45:58;;;;;;;5.10;1.40;;;;;;;4.57;78.87;149817.84;13095990;22;20019;-77
2023/12/22 01:51:01;;;;;;;6.82;0.77;;;;;;;4.61;78.71;149826.84;13099562;22;20050;-78
2023/12/22 01:56:04;;;;;;;4.95;1.20;;;;;;;4.55;78.42;149813.97;13103793;22;20027;-78
2023/12/22 02:01:07;;;;;;;6.70;1.58;;;;;;;4.47;78.92;149793.44;13112441;22;20018;-79
2023/12/22 02:06:10;;;;;;;3.38;0.95;;;;;;;4.50;80.14;149801.13;13087264;22;20043;-79
2023/12/22 02:11:12;;;;;;;12.13;1.52;;;;;;;4.31;85.13;149752.31;13078791;22;20035;-79
2023/12/22 02:16:19;;;;;;;10.68;1.73;;;;;;;3.97;87.94;149667.50;13077679;22;20015;-79
2023/12/22 02:21:21;;;;;;;7.90;1.60;;;;;;;3.95;88.07;149662.41;13078434;22;20011;-79
2023/12/22 02:26:37;;;;;;;6.85;1.67;;;;;;;3.91;87.21;149652.13;13050491;22;20457;-79
2023/12/22 02:31:44;;;;;;;11.48;3.03;;;;;;;3.95;86.47;149661.13;13074907;22;20011;-80
2023/12/22 02:36:48;;;;;;;7.45;1.15;;;;;;;3.83;87.41;149631.56;13049149;22;20015;-80
2023/12/22 02:41:51;;;;;;;6.75;1.30;;;;;;;3.71;88.76;149600.72;13074673;22;20015;-79
2023/12/22 02:46:52;;;;;;;6.35;1.85;;;;;;;3.68;88.75;149593.06;13076562;22;20054;-79
2023/12/22 02:51:54;;;;;;;7.43;1.83;;;;;;;3.64;88.13;149582.78;13075760;22;20011;-79
2023/12/22 02:56:56;;;;;;;4.38;2.13;;;;;;;3.76;85.60;149613.56;13074983;22;20042;-79
2023/12/22 03:01:57;;;;;;;7.20;1.38;;;;;;;3.86;85.44;149639.28;13048216;22;20031;-79
2023/12/22 03:06:59;;;;;;;8.43;1.58;;;;;;;3.90;84.28;149648.28;13075573;22;20011;-79
2023/12/22 03:12:01;;;;;;;4.60;1.20;;;;;;;3.86;84.57;149639.28;13047526;22;20015;-79
2023/12/22 03:17:05;;;;;;;9.63;1.30;;;;;;;3.96;82.62;149664.97;13072191;22;20026;-80
2023/12/22 03:22:06;;;;;;;6.75;1.23;;;;;;;4.08;82.00;149694.50;13075247;22;20015;-81
2023/12/22 03:27:08;;;;;;;5.88;1.83;;;;;;;4.16;79.99;149715.09;13074510;22;20026;-80
2023/12/22 03:32:10;;;;;;;11.00;1.92;;;;;;;4.06;80.42;149689.34;13080456;22;20019;-80
2023/12/22 03:37:11;;;;;;;4.70;1.25;;;;;;;4.15;79.27;149711.19;13077192;22;20015;-80
2023/12/22 03:42:13;;;;;;;16.52;1.75;;;;;;;4.08;79.03;149694.50;13071245;22;20019;-81
2023/12/22 03:47:15;;;;;;;10.38;1.45;;;;;;;4.17;78.08;149716.34;13042279;22;20046;-79
2023/12/22 03:52:17;;;;;;;10.68;1.38;;;;;;;4.30;77.62;149749.75;13070647;22;20011;-80
2023/12/22 03:57:18;;;;;;;4.18;1.25;;;;;;;4.41;75.71;149776.72;13074782;22;20019;-81
2023/12/22 04:02:20;;;;;;;7.95;1.45;;;;;;;4.48;73.85;149794.72;13042892;22;20023;-80
2023/12/22 04:07:22;;;;;;;3.42;1.00;;;;;;;4.45;73.70;149788.28;13044586;22;20401;-79
2023/12/22 04:12:24;;;;;;;4.60;1.13;;;;;;;4.46;73.08;149790.84;13068338;22;20453;-80
2023/12/22 04:17:25;;;;;;;8.93;1.40;;;;;;;4.47;72.80;149793.44;13070632;22;20015;-79
2023/12/22 04:22:27;;;;;;;9.52;1.27;;;;;;;4.32;74.73;149754.88;13069841;22;20019;-81
2023/12/22 04:27:29;;;;;;;3.80;0.93;;;;;;;4.28;74.94;149745.88;13072156;22;20026;-80
2023/12/22 04:32:30;;;;;;;5.65;1.15;;;;;;;4.19;76.71;149722.75;13043515;22;20058;-80
2023/12/22 04:37:32;;;;;;;8.75;1.20;;;;;;;4.18;76.39;149718.91;13072086;22;20020;-80
2023/12/22 04:42:34;;;;;;;2.60;0.80;;;;;;;4.19;76.02;149721.47;13069956;22;20351;-81
2023/12/22 04:47:36;;;;;;;6.75;1.20;;;;;;;4.08;76.96;149693.25;13069677;22;20015;-84
2023/12/22 04:52:38;;;;;;;4.20;0.70;;;;;;;4.05;77.28;149688.06;13056400;22;20445;-82
2023/12/22 04:57:40;;;;;;;1.98;0.57;;;;;;;4.03;77.17;149682.97;13077164;22;20062;-80
2023/12/22 05:02:41;;;;;;;2.67;0.80;;;;;;;4.14;76.70;149708.63;13068979;22;20015;-81
2023/12/22 05:07:43;;;;;;;1.73;0.40;;;;;;;4.18;77.28;149718.91;13046154;22;20015;-80
2023/12/22 05:12:45;;;;;;;3.22;0.60;;;;;;;4.12;78.04;149703.47;13084967;22;20015;-80
2023/12/22 05:17:46;;;;;;;1.02;0.35;;;;;;;4.05;79.74;149686.78;13070144;22;20038;-81
2023/12/22 05:22:48;;;;;;;1.80;0.50;;;;;;;3.84;81.38;149634.13;13071468;22;20019;-80
2023/12/22 05:27:51;;;;;;;2.58;0.57;;;;;;;3.68;83.19;149594.34;13069774;22;20483;-80
2023/12/22 05:32:54;;;;;;;1.33;0.40;;;;;;;3.60;83.60;149573.78;13043017;22;20019;-81
2023/12/22 05:37:56;;;;;;;3.00;0.50;;;;;;;3.46;85.99;149537.84;13070065;22;20095;-80
2023/12/22 05:42:58;;;;;;;1.60;0.47;;;;;;;3.52;85.41;149553.22;13090852;22;20015;-80
2023/12/22 05:47:59;;;;;;;1.60;0.63;;;;;;;3.51;84.72;149551.94;13096546;22;20019;-80
2023/12/22 05:53:01;;;;;;;6.05;0.57;;;;;;;3.48;84.13;149544.25;13078474;22;20071;-78
2023/12/22 05:58:03;;;;;;;1.48;0.32;;;;;;;3.48;84.78;149542.97;13070684;22;20011;-81
2023/12/22 06:03:05;;;;;;;1.88;0.60;;;;;;;3.49;84.60;149546.78;13069953;22;20022;-80
2023/12/22 06:08:07;;;;;;;1.60;0.63;;;;;;;3.52;85.55;149553.22;13070745;22;20027;-82
2023/12/22 06:13:09;;;;;;;1.48;0.57;;;;;;;3.63;84.63;149581.50;13071036;22;20026;-79
2023/12/22 06:18:11;;;;;;;2.47;0.65;;;;;;;3.57;85.53;149566.06;13069180;22;20019;-82
2023/12/22 06:23:12;;;;;;;2.35;0.50;;;;;;;3.57;83.78;149566.06;13068281;22;20400;-81
2023/12/22 06:28:16;;;;;;;3.80;0.88;;;;;;;3.54;83.75;149558.34;13069762;22;20080;-81
2023/12/22 06:33:18;;;;;;;1.23;0.82;;;;;;;3.60;82.79;149572.50;13069292;22;20019;-80
2023/12/22 06:38:20;;;;;;;3.83;0.70;;;;;;;3.45;82.85;149535.25;13081287;22;20019;-80
2023/12/22 06:43:22;;;;;;;2.17;0.60;;;;;;;3.33;83.20;149505.75;13110542;22;20037;-80
2023/12/22 06:48:25;;;;;;;3.15;0.70;;;;;;;3.35;81.76;149509.56;13112673;22;20011;-80
2023/12/22 06:53:26;;;;;;;1.58;0.60;;;;;;;3.35;82.13;149510.84;13113348;22;20002;-80
2023/12/22 06:58:28;;;;;;;6.28;0.70;;;;;;;3.35;82.45;149509.56;13099400;22;20029;-81
2023/12/22 07:03:30;;;;;;;5.25;1.08;;;;;;;3.22;82.97;149477.47;13055238;22;20015;-80
2023/12/22 07:08:32;;;;;;;2.67;0.90;;;;;;;3.27;82.93;149491.59;13082206;22;20038;-80
2023/12/22 07:13:33;;;;;;;3.15;0.80;;;;;;;3.23;82.14;149481.34;13079614;22;20025;-80
2023/12/22 07:18:37;;;;;;;4.05;0.80;;;;;;;3.18;82.99;149467.19;13070500;22;20019;-80
2023/12/22 07:23:39;;;;;;;1.02;0.40;;;;;;;3.16;83.08;149463.38;13069499;22;20016;-79
2023/12/22 07:28:41;;;;;;;2.17;1.00;;;;;;;3.29;83.18;149495.47;13020229;22;20020;-79
2023/12/22 07:33:43;;;;;;;2.08;0.50;;;;;;;3.27;83.68;149490.31;13072606;22;20038;-79
2023/12/22 07:38:45;;;;;;;1.35;0.30;;;;;;;3.44;83.57;149532.69;13080227;22;20023;-81
2023/12/22 07:43:46;;;;;;;2.80;0.52;;;;;;;3.28;86.37;149492.91;13077746;22;20019;-79
2023/12/22 07:48:52;;;;;;;0.52;0.50;;;;;;;2.92;94.78;149403.06;13076811;22;20016;-80
2023/12/22 07:53:54;;;;;;;3.85;0.75;;;;;;;2.57;100.00;149314.53;13074512;22;20015;-79
2023/12/22 07:58:56;;;;;;;3.10;0.60;;;;;;;2.38;100.00;149267.03;13042757;22;20090;-81
2023/12/22 08:04:14;;;;;;;0.80;0.55;;;;;;;2.25;100.00;149234.94;13047203;22;20015;-81
2023/12/22 08:09:16;;;;;;;1.17;0.50;;;;;;;1.86;100.00;149136.25;13070446;22;20050;-80
2023/12/22 08:14:17;;;;;;;2.45;0.65;;;;;;;1.29;100.00;148991.41;13072216;22;20015;-80
2023/12/22 08:19:20;;;;;;;2.10;1.10;;;;;;;0.92;100.00;148900.38;13071272;22;20031;-80
2023/12/22 08:24:23;;;;;;;1.55;0.38;;;;;;;0.85;100.00;148881.19;13078874;22;20016;-80
2023/12/22 08:29:25;;;;;;;3.70;1.15;;;;;;;1.05;100.00;148932.41;13044032;22;20015;-80
2023/12/22 08:34:27;;;;;;;3.05;1.23;;;;;;;1.07;100.00;148937.56;13072196;22;20041;-79
2023/12/22 08:39:31;;;;;;;2.60;1.35;;;;;;;1.05;100.00;148932.41;13044652;22;20046;-79
2023/12/22 08:44:33;;;;;;;11.88;4.47;;;;;;;1.10;100.00;148945.22;13045245;22;20015;-79
2023/12/22 08:49:35;;;;;;;2.92;1.00;;;;;;;1.44;100.00;149029.81;13072919;22;20086;-80
2023/12/22 08:54:36;;;;;;;2.40;0.82;;;;;;;1.55;100.00;149058.03;13075514;22;20019;-79
2023/12/22 08:59:38;;;;;;;3.47;0.80;;;;;;;1.75;100.00;149109.28;13079103;22;20016;-80
2023/12/22 09:04:40;;;;;;;1.83;1.05;;;;;;;1.86;100.00;149134.94;13073607;22;20023;-79
2023/12/22 09:09:42;;;;;;;3.17;1.10;;;;;;;1.86;100.00;149134.94;13082449;22;20022;-80
2023/12/22 09:14:44;;;;;;;2.28;0.90;;;;;;;2.00;100.00;149170.88;13074250;22;20069;-80
2023/12/22 09:19:46;;;;;;;3.13;0.80;;;;;;;1.96;100.00;149160.59;13074825;22;20026;-80
2023/12/22 09:24:48;;;;;;;1.92;0.40;;;;;;;1.56;100.00;149060.59;13091848;22;20022;-79
2023/12/22 09:29:50;;;;;;;0.45;0.40;;;;;;;1.46;100.00;149034.94;13081003;22;20015;-80
2023/12/22 09:34:52;;;;;;;1.70;0.40;;;;;;;1.48;100.00;149040.09;13105278;22;20019;-80
2023/12/22 09:39:54;;;;;;;1.65;0.50;;;;;;;1.71;100.00;149097.75;13073345;22;20018;-80
2023/12/22 09:45:02;;;;;;;1.90;0.70;;;;;;;2.09;100.00;149193.94;13072449;22;20015;-80
2023/12/22 09:50:06;;;;;;;0.85;0.50;;;;;;;2.42;100.00;149277.28;13070873;22;20012;-79
2023/12/22 09:55:09;;;;;;;5.88;1.25;;;;;;;2.67;100.00;149338.91;13071695;22;20025;-81
2023/12/22 10:00:12;;;;;;;2.30;1.20;;;;;;;2.91;99.58;149400.47;13054435;22;20011;-80
2023/12/22 10:05:14;;;;;;;1.52;0.40;;;;;;;3.23;94.92;149480.03;13053447;22;20020;-79
2023/12/22 10:10:18;;;;;;;1.75;0.60;;;;;;;3.35;88.10;149510.84;13071368;22;20039;-81
2023/12/22 10:15:23;;;;;;;1.58;0.63;;;;;;;3.31;89.01;149500.56;13071133;22;20019;-80
2023/12/22 10:20:25;;;;;;;3.85;0.38;;;;;;;3.19;89.87;149471.09;13074609;22;20061;-81
2023/12/22 10:25:32;;;;;;;2.70;0.65;;;;;;;3.52;82.80;149553.22;13070754;22;20090;-79
2023/12/22 10:30:34;;;;;;;0.85;0.40;;;;;;;3.55;84.83;149560.94;13073019;22;20011;-78
2023/12/22 10:35:36;;;;;;;1.15;0.77;;;;;;;3.52;83.00;149554.50;13068727;22;20480;-81
2023/12/22 10:40:38;;;;;;;1.23;0.32;;;;;;;3.23;86.89;149480.03;13064112;22;20011;-78
2023/12/22 10:45:40;;;;;;;1.98;1.02;;;;;;;3.32;86.01;149501.84;13068238;22;20015;-78
2023/12/22 10:50:43;;;;;;;3.95;0.75;;;;;;;3.14;89.23;149456.94;13068456;22;20015;-79
2023/12/22 10:55:46;;;;;;;2.88;1.00;;;;;;;3.31;89.23;149499.31;13036050;22;20019;-79
2023/12/22 11:00:51;;;;;;;5.65;3.10;;;;;;;3.14;91.42;149456.94;13059087;22;20016;-79
2023/12/22 11:05:55;;;;;;;1.25;0.43;;;;;;;2.35;100.00;149259.38;13057928;22;20022;-78
2023/12/22 11:11:01;;;;;;;0.63;0.30;;;;;;;2.08;100.00;149190.06;13062179;22;20011;-79
2023/12/22 11:16:05;;;;;;;0.70;0.63;;;;;;;2.18;100.00;149217.03;13036373;22;20031;-78
2023/12/22 11:21:10;;;;;;;3.95;0.52;;;;;;;2.42;100.00;149276.00;13062085;22;20404;-78
2023/12/22 11:26:14;;;;;;;2.00;0.40;;;;;;;2.83;100.00;149378.66;13061932;22;20019;-78
2023/12/22 11:31:15;;;;;;;1.90;0.50;;;;;;;2.90;100.00;149396.63;13061226;22;20042;-77
2023/12/22 11:36:18;;;;;;;0.38;0.22;;;;;;;3.16;100.00;149462.09;13070423;22;20041;-77
2023/12/22 11:41:29;;;;;;;3.33;0.50;;;;;;;3.11;100.00;149449.25;13061720;22;20449;-78
2023/12/22 11:46:32;;;;;;;2.17;0.50;;;;;;;3.16;100.00;149462.09;13067303;22;20127;-79
2023/12/22 11:51:35;;;;;;;1.42;0.28;;;;;;;3.27;96.75;149490.31;13070625;22;20011;-78
2023/12/22 11:56:37;;;;;;;1.80;0.70;;;;;;;3.40;97.04;149522.41;13038136;22;20019;-79
2023/12/22 12:01:39;;;;;;;4.95;1.13;;;;;;;3.60;94.69;149572.50;13036842;22;20431;-78
2023/12/22 12:06:41;;;;;;;2.60;0.60;;;;;;;3.70;92.15;149599.44;13065255;22;20101;-79
2023/12/22 12:11:52;;;;;;;1.63;0.38;;;;;;;3.80;90.55;149623.84;13069356;22;20086;-79
2023/12/22 12:17:03;;;;;;;2.03;0.57;;;;;;;3.80;91.69;149623.84;13073951;22;20019;-79
2023/12/22 12:22:07;;;;;;;2.47;0.60;;;;;;;4.12;88.51;149704.78;13070393;22;20331;-78
2023/12/22 12:27:08;;;;;;;1.95;0.52;;;;;;;4.12;90.57;149704.78;13044771;22;20441;-79
2023/12/22 12:32:14;;;;;;;3.47;0.80;;;;;;;4.17;88.68;149717.63;13074179;22;20437;-78
2023/12/22 12:37:16;;;;;;;2.70;0.63;;;;;;;4.07;83.86;149691.91;13068348;22;20118;-79
2023/12/22 12:42:22;;;;;;;4.57;0.90;;;;;;;3.80;89.86;149625.13;13030239;22;20019;-79
2023/12/22 12:47:24;;;;;;;0.43;0.40;;;;;;;3.25;97.82;149485.19;13072890;22;20015;-79
2023/12/22 12:52:26;;;;;;;2.13;0.57;;;;;;;2.92;100.00;149401.75;13064407;22;20338;-78
2023/12/22 12:57:28;;;;;;;2.25;0.40;;;;;;;2.75;100.00;149359.44;13029403;22;20015;-79
2023/12/22 13:02:35;;;;;;;1.40;0.35;;;;;;;2.69;100.00;149344.00;13038298;22;20073;-78
2023/12/22 13:07:37;;;;;;;2.90;0.68;;;;;;;2.48;100.00;149291.44;13063705;22;20026;-79
2023/12/22 13:12:40;;;;;;;1.52;0.45;;;;;;;2.39;100.00;149269.63;13060726;22;20022;-80
2023/12/22 13:17:43;;;;;;;5.25;0.50;;;;;;;2.36;100.00;149261.91;13096593;22;20026;-80
2023/12/22 13:22:45;;;;;;;0.88;0.30;;;;;;;2.30;100.00;149246.50;13076493;22;20014;-80
2023/12/22 13:27:48;;;;;;;0.57;0.35;;;;;;;2.19;100.00;149218.31;13079419;22;20015;-79
2023/12/22 13:32:54;;;;;;;0.50;0.30;;;;;;;2.16;100.00;149210.59;13080228;22;20388;-79
2023/12/22 13:37:56;;;;;;;0.55;0.20;;;;;;;2.04;100.00;149181.13;13090139;22;20020;-79
2023/12/22 13:42:58;;;;;;;1.00;0.38;;;;;;;1.83;100.00;149128.53;13097668;22;20015;-79
2023/12/22 13:48:00;;;;;;;1.10;0.40;;;;;;;1.90;100.00;149146.47;13044400;22;20326;-79
2023/12/22 13:53:09;;;;;;;1.75;0.45;;;;;;;1.83;100.00;149128.53;13098565;22;20022;-79
2023/12/22 13:58:12;;;;;;;0.40;0.40;;;;;;;1.82;100.00;149124.72;13104422;22;20015;-79
2023/12/22 14:03:16;;;;;;;0.47;0.35;;;;;;;1.66;100.00;149084.94;13061704;22;20457;-80
2023/12/22 14:08:18;;;;;;;1.90;0.50;;;;;;;1.74;100.00;149106.75;13029653;22;20015;-79
2023/12/22 14:13:20;;;;;;;0.40;0.40;;;;;;;1.70;100.00;149095.22;13048429;22;20015;-79
2023/12/22 14:18:22;;;;;;;2.17;0.40;;;;;;;1.82;100.00;149124.72;13101046;22;20010;-80
2023/12/22 14:23:24;;;;;;;0.47;0.30;;;;;;;1.79;100.00;149117.00;13070024;22;20046;-79
2023/12/22 14:28:27;;;;;;;0.70;0.30;;;;;;;1.88;100.00;149141.34;13065003;22;20026;-80
2023/12/22 14:33:29;;;;;;;0.50;0.20;;;;;;;1.81;100.00;149123.38;13070842;22;20022;-78
2023/12/22 14:38:31;;;;;;;0.40;0.30;;;;;;;1.76;100.00;149111.84;13041427;22;20015;-79
2023/12/22 14:43:32;;;;;;;0.28;0.22;;;;;;;1.87;100.00;149137.53;13071797;22;20015;-79
2023/12/22 14:48:34;;;;;;;0.65;0.40;;;;;;;1.87;100.00;149137.53;13071798;22;20387;-79
2023/12/22 14:53:36;;;;;;;0.20;0.20;;;;;;;1.84;100.00;149129.81;13070364;22;20045;-80
2023/12/22 14:58:37;;;;;;;0.55;0.45;;;;;;;1.77;100.00;149114.44;13058930;22;20453;-77
2023/12/22 15:03:40;;;;;;;1.17;0.73;;;;;;;1.99;100.00;149169.59;13030700;22;20061;-78
2023/12/22 15:08:42;;;;;;;0.70;0.40;;;;;;;1.94;100.00;149155.44;13068981;22;20140;-78
2023/12/22 15:13:44;;;;;;;1.05;0.60;;;;;;;2.04;100.00;149181.13;13060389;22;20119;-79
2023/12/22 15:18:46;;;;;;;1.77;0.70;;;;;;;2.18;100.00;149217.03;13074625;22;20446;-80
2023/12/22 15:23:47;;;;;;;1.98;0.75;;;;;;;2.34;100.00;149255.47;13069633;22;20015;-78
2023/12/22 15:28:49;;;;;;;1.08;0.70;;;;;;;2.57;100.00;149313.19;13074278;22;20015;-79
2023/12/22 15:33:51;;;;;;;2.60;0.63;;;;;;;2.56;100.00;149310.66;13044555;22;20015;-79
2023/12/22 15:38:53;;;;;;;2.13;0.88;;;;;;;2.73;100.00;149354.28;13050523;22;20076;-80
2023/12/22 15:43:54;;;;;;;2.65;0.57;;;;;;;2.66;100.00;149337.63;13080589;22;20027;-80
2023/12/22 15:48:56;;;;;;;1.23;0.65;;;;;;;2.72;100.00;149353.00;13070994;22;20041;-79
2023/12/22 15:53:58;;;;;;;2.60;1.23;;;;;;;2.66;100.00;149337.63;13064193;22;20015;-78
2023/12/22 15:58:59;;;;;;;1.85;0.80;;;;;;;2.47;100.00;149290.13;13034591;22;20457;-78
2023/12/22 16:04:01;;;;;;;2.58;1.10;;;;;;;2.31;100.00;149247.81;13061670;22;20019;-78
2023/12/22 16:09:04;;;;;;;0.45;0.40;;;;;;;2.15;100.00;149209.31;13060289;22;20015;-78
2023/12/22 16:14:05;;;;;;;0.90;0.50;;;;;;;2.03;100.00;149179.81;13060858;22;20064;-77
2023/12/22 16:19:07;;;;;;;0.98;0.52;;;;;;;1.75;100.00;149108.03;13063992;22;20041;-77
2023/12/22 16:24:12;;;;;;;1.70;1.60;;;;;;;1.68;100.00;149091.38;13058955;22;20056;-78
2023/12/22 16:29:14;;;;;;;1.55;0.65;;;;;;;1.77;100.00;149113.13;13057896;22;20015;-78
2023/12/22 16:34:16;;;;;;;0.85;0.50;;;;;;;1.65;100.00;149082.41;13056733;22;20358;-77
2023/12/22 16:39:17;;;;;;;1.33;0.80;;;;;;;1.64;100.00;149079.78;13068463;22;20050;-76
2023/12/22 16:44:21;;;;;;;1.27;0.35;;;;;;;1.69;100.00;149092.66;13068223;22;20068;-77
2023/12/22 16:49:23;;;;;;;1.25;0.65;;;;;;;1.52;100.00;149051.63;13030117;22;20019;-78
2023/12/22 16:54:25;;;;;;;1.98;0.77;;;;;;;1.49;100.00;149042.63;13028025;22;20019;-77
2023/12/22 16:59:27;;;;;;;0.55;0.35;;;;;;;1.31;100.00;148997.78;13055111;22;20064;-77
2023/12/22 17:04:29;;;;;;;3.53;1.27;;;;;;;1.39;100.00;149018.28;13056134;22;20016;-77
2023/12/22 17:09:31;;;;;;;2.17;1.13;;;;;;;1.50;100.00;149045.19;13056452;22;20022;-78
2023/12/22 17:14:33;;;;;;;1.23;0.70;;;;;;;1.41;100.00;149023.41;13057799;22;20019;-77
2023/12/22 17:19:35;;;;;;;3.33;0.50;;;;;;;1.44;100.00;149031.09;13029107;22;20468;-77
2023/12/22 17:24:42;;;;;;;0.40;0.28;;;;;;;1.37;100.00;149013.13;13060919;22;20022;-78
2023/12/22 17:29:44;;;;;;;0.95;0.28;;;;;;;1.38;100.00;149014.47;13060112;22;20011;-78
2023/12/22 17:34:46;;;;;;;0.40;0.30;;;;;;;1.32;100.00;149000.34;13035716;22;20045;-78
2023/12/22 17:39:47;;;;;;;0.32;0.20;;;;;;;1.04;100.00;148928.59;13065016;22;20011;-78
2023/12/22 17:44:49;;;;;;;0.98;0.77;;;;;;;0.97;100.00;148913.25;13062971;22;20015;-78
2023/12/22 17:49:51;;;;;;;5.63;1.10;;;;;;;0.88;100.00;148890.13;13033283;22;20011;-79
2023/12/22 17:54:53;;;;;;;2.95;1.88;;;;;;;0.83;100.00;148876.06;13063038;22;20018;-78
2023/12/22 17:59:54;;;;;;;2.35;1.42;;;;;;;0.62;100.00;148823.53;13058781;22;20043;-78
2023/12/22 18:04:56;;;;;;;1.55;0.70;;;;;;;0.70;100.00;148845.28;13057828;22;20031;-78
2023/12/22 18:09:58;;;;;;;0.80;0.65;;;;;;;0.66;100.00;148835.03;13080847;22;20060;-77
2023/12/22 18:14:59;;;;;;;3.92;1.15;;;;;;;0.76;100.00;148859.41;13064248;22;20020;-77
2023/12/22 18:20:01;;;;;;;0.90;0.50;;;;;;;0.69;100.00;148841.47;13097581;22;20019;-77
2023/12/22 18:25:03;;;;;;;1.10;0.57;;;;;;;0.62;100.00;148823.53;13076492;22;20049;-77
2023/12/22 18:30:06;;;;;;;2.60;0.77;;;;;;;0.55;100.00;148805.63;13048777;22;20035;-76
2023/12/22 18:35:07;;;;;;;0.68;0.40;;;;;;;0.62;100.00;148824.84;13099736;22;20010;-77
2023/12/22 18:40:10;;;;;;;0.95;0.70;;;;;;;0.51;100.00;148796.63;13079365;22;20063;-77
2023/12/22 18:45:12;;;;;;;0.70;0.60;;;;;;;0.48;100.00;148788.94;13100440;22;20048;-77
2023/12/22 18:50:14;;;;;;;2.35;1.38;;;;;;;0.43;100.00;148776.16;13090978;22;20377;-77
2023/12/22 18:55:17;;;;;;;1.00;0.50;;;;;;;0.42;100.00;148774.88;13088854;22;20067;-78
2023/12/22 19:00:19;;;;;;;0.45;0.43;;;;;;;0.37;100.00;148762.06;13090282;22;20417;-77
2023/12/22 19:05:21;;;;;;;0.70;0.30;;;;;;;0.28;100.00;148737.75;13095838;22;20095;-78
2023/12/22 19:10:23;;;;;;;0.40;0.40;;;;;;;0.14;100.00;148704.47;13055260;22;20491;-80
2023/12/22 19:15:25;;;;;;;2.33;0.98;;;;;;;0.18;100.00;148713.44;13089621;22;20030;-79
2023/12/22 19:20:27;;;;;;;2.17;0.60;;;;;;;0.19;100.00;148715.97;13085870;22;20003;-79
2023/12/22 19:25:29;;;;;;;0.98;0.60;;;;;;;0.31;100.00;148745.41;13112835;22;20022;-79
2023/12/22 19:30:31;;;;;;;0.65;0.40;;;;;;;0.30;100.00;148742.84;13086060;22;20090;-79
2023/12/22 19:35:32;;;;;;;4.50;4.07;;;;;;;0.56;100.00;148808.16;13108948;22;20138;-78
2023/12/22 19:40:34;;;;;;;0.95;0.95;;;;;;;0.65;100.00;148831.22;13096116;22;20011;-79
2023/12/22 19:45:36;;;;;;;0.80;0.30;;;;;;;0.75;100.00;148856.81;13071357;22;20015;-77
2023/12/22 19:50:38;;;;;;;0.20;0.20;;;;;;;0.83;100.00;148877.31;13038096;22;20456;-78
2023/12/22 19:55:40;;;;;;;0.45;0.45;;;;;;;1.00;100.00;148920.88;13034577;22;20109;-81
2023/12/22 20:00:43;;;;;;;0.28;0.28;;;;;;;1.05;100.00;148932.41;13038157;22;20030;-78
2023/12/22 20:05:46;;;;;;;0.50;0.40;;;;;;;1.18;100.00;148964.47;13077723;22;20015;-78
2023/12/22 20:10:49;;;;;;;0.73;0.22;;;;;;;1.19;100.00;148968.28;13044290;22;20011;-77
2023/12/22 20:15:51;;;;;;;1.38;0.40;;;;;;;1.17;100.00;148961.91;13092414;22;20050;-78
2023/12/22 20:20:53;;;;;;;1.20;0.40;;;;;;;1.22;100.00;148976.00;13074533;22;20067;-78
2023/12/22 20:25:55;;;;;;;0.52;0.35;;;;;;;1.34;100.00;149004.22;13069842;22;20026;-78
2023/12/22 20:30:57;;;;;;;1.27;0.60;;;;;;;1.30;100.00;148995.22;13065727;22;20475;-79
2023/12/22 20:35:59;;;;;;;1.77;0.40;;;;;;;1.38;100.00;149015.75;13082004;22;20019;-79
2023/12/22 20:41:01;;;;;;;1.35;0.10;;;;;;;1.24;100.00;148981.16;13065213;22;20019;-79
2023/12/22 20:46:04;;;;;;;0.60;0.30;;;;;;;1.38;100.00;149014.47;13077406;22;20066;-79
2023/12/22 20:51:05;;;;;;;0.28;0.28;;;;;;;1.33;100.00;149001.59;13071957;22;20011;-79
2023/12/22 20:56:20;;;;;;;0.30;0.30;;;;;;;1.39;100.00;149018.28;13068594;22;20084;-79
2023/12/22 21:01:23;;;;;;;0.20;0.20;;;;;;;1.48;100.00;149041.34;13069820;22;20090;-80
2023/12/22 21:06:25;;;;;;;5.05;0.50;;;;;;;1.27;100.00;148987.53;13078353;22;20015;-79
2023/12/22 21:11:27;;;;;;;0.47;0.40;;;;;;;1.26;100.00;148984.97;13063680;22;20022;-78
2023/12/22 21:16:29;;;;;;;1.40;0.52;;;;;;;1.30;100.00;148993.94;13060296;22;20090;-78
2023/12/22 21:21:31;;;;;;;0.30;0.30;;;;;;;1.13;100.00;148951.66;13063125;22;20442;-78
2023/12/22 21:26:32;;;;;;;0.57;0.50;;;;;;;1.12;100.00;148949.09;13063651;22;20015;-78
2023/12/22 21:31:34;;;;;;;0.70;0.50;;;;;;;1.29;100.00;148992.66;13060573;22;20042;-79
2023/12/22 21:36:36;;;;;;;0.68;0.30;;;;;;;1.31;100.00;148996.50;13059654;22;20023;-78
2023/12/22 21:41:38;;;;;;;0.28;0.20;;;;;;;1.36;100.00;149010.59;13059059;22;20017;-77
2023/12/22 21:46:43;;;;;;;0.28;0.28;;;;;;;1.22;100.00;148974.72;13059933;22;20350;-77
2023/12/22 21:51:45;;;;;;;0.47;0.20;;;;;;;1.37;100.00;149013.13;13056755;22;20015;-78
2023/12/22 21:56:47;;;;;;;0.20;0.20;;;;;;;1.50;100.00;149045.19;13061989;22;20388;-79
2023/12/22 22:01:50;;;;;;;0.20;0.20;;;;;;;1.50;100.00;149046.47;13063981;22;20037;-78
2023/12/22 22:06:52;;;;;;;0.73;0.35;;;;;;;1.53;100.00;149052.91;13063255;22;20020;-79
2023/12/22 22:11:54;;;;;;;0.40;0.20;;;;;;;1.49;100.00;149043.91;13067068;22;20042;-78
2023/12/22 22:16:56;;;;;;;0.10;0.10;;;;;;;1.70;100.00;149095.22;13041979;22;20023;-79
2023/12/22 22:21:58;;;;;;;0.20;0.20;;;;;;;1.79;100.00;149117.00;13063451;22;20049;-77
2023/12/22 22:27:00;;;;;;;0.55;0.28;;;;;;;1.81;100.00;149122.13;13062840;22;20416;-79
2023/12/22 22:32:02;;;;;;;0.20;0.20;;;;;;;1.91;100.00;149149.06;13035016;22;20020;-78
2023/12/22 22:37:04;;;;;;;0.10;0.10;;;;;;;2.09;100.00;149192.66;13064697;22;20094;-78
2023/12/22 22:42:05;;;;;;;0.22;0.20;;;;;;;1.97;100.00;149163.16;13061197;22;20414;-79
2023/12/22 22:47:07;;;;;;;0.20;0.20;;;;;;;2.00;100.00;149170.88;13068141;22;20015;-79
2023/12/22 22:52:09;;;;;;;0.20;0.10;;;;;;;2.08;100.00;149191.41;13040095;22;20576;-78
2023/12/22 22:57:11;;;;;;;0.30;0.20;;;;;;;1.93;100.00;149152.91;13041594;22;20465;-78
2023/12/22 23:02:12;;;;;;;0.30;0.20;;;;;;;1.83;100.00;149128.53;13069366;22;20019;-79
2023/12/22 23:07:14;;;;;;;0.10;0.10;;;;;;;1.92;100.00;149151.63;13067037;22;20023;-78
2023/12/22 23:12:16;;;;;;;0.63;0.10;;;;;;;1.93;100.00;149152.91;13039452;22;20043;-78